Manassa, Colorado
Current Conditions -  °F | °C
As of 6:41 AM on Friday 19 Dec 2014 (Local Time) from KALS Reporting Station
Few Clouds Few Clouds  
Wind Chill:   Ceiling: Unl
Heat Index:   Visibility: 9mi
Dew Point:   Wind: 0mph
Humidity: 87%   Direction: NA
Pressure: 30.16"   Gusts: NA
Location:  37.17°N, 105.94°W
Report Text: KALS 191341Z AUTO 00000KT 9SM FEW002 M16/M18 A3016 RMK AO2 T11611178
Loading
Personal Weather Stations






























Interactive Weather Map New forecast layout! Learn more

10-Day Weather Forecast

Advertisements
Track Severe Weather on mobile